createdAt,value
2023-05-02T00:03:16.649Z,10.69
2023-05-02T00:08:18.558Z,10.78
2023-05-02T00:13:20.597Z,10.88
2023-05-02T00:18:24.132Z,10.99
2023-05-02T00:23:25.908Z,11.10
2023-05-02T00:28:27.659Z,11.19
2023-05-02T00:33:29.449Z,11.26
2023-05-02T00:38:31.472Z,11.34
2023-05-02T00:43:33.421Z,11.37
2023-05-02T00:48:36.249Z,11.40
2023-05-02T00:53:38.045Z,11.43
2023-05-02T00:58:41.226Z,11.49
2023-05-02T01:03:45.840Z,11.59
2023-05-02T01:09:07.300Z,11.71
2023-05-02T01:14:11.691Z,11.92
2023-05-02T01:19:33.338Z,12.08
2023-05-02T01:24:43.096Z,12.26
2023-05-02T01:29:46.282Z,12.43
2023-05-02T01:34:49.940Z,12.54
2023-05-02T01:39:53.597Z,12.64
2023-05-02T01:44:56.997Z,12.75
2023-05-02T01:50:00.526Z,12.86
2023-05-02T01:55:05.131Z,12.94
2023-05-02T02:00:09.877Z,13.02
2023-05-02T02:05:16.149Z,13.06
2023-05-02T02:10:18.539Z,13.11
2023-05-02T02:15:27.457Z,13.18
2023-05-02T02:20:30.353Z,13.18
2023-05-02T02:25:33.911Z,13.20
2023-05-02T02:30:35.745Z,13.20
2023-05-02T02:35:50.556Z,13.16
2023-05-02T02:41:02.667Z,13.13
2023-05-02T02:46:32.607Z,13.08
2023-05-02T02:51:53.403Z,13.04
2023-05-02T02:57:16.658Z,12.97
2023-05-02T03:02:23.062Z,12.94
2023-05-02T03:07:28.819Z,12.91
2023-05-02T03:12:32.030Z,12.88
2023-05-02T03:17:34.025Z,12.86
2023-05-02T03:22:35.942Z,12.80
2023-05-02T03:27:37.995Z,12.77
2023-05-02T03:32:41.024Z,12.38
2023-05-02T03:37:43.436Z,12.03
2023-05-02T03:42:45.268Z,11.83
2023-05-02T03:47:54.339Z,11.74
2023-05-02T03:52:57.358Z,11.71
2023-05-02T03:58:03.609Z,11.72
2023-05-02T04:07:18.091Z,11.87
2023-05-02T04:12:21.536Z,12.01
2023-05-02T04:17:25.937Z,12.23
2023-05-02T04:22:27.982Z,12.50
2023-05-02T04:27:34.432Z,12.77
2023-05-02T04:32:37.993Z,13.20
2023-05-02T04:37:40.652Z,13.76
2023-05-02T04:42:42.908Z,14.40
2023-05-02T04:47:51.831Z,15.23
2023-05-02T04:52:54.191Z,15.88
2023-05-02T04:57:56.545Z,16.23
2023-05-02T05:03:01.572Z,16.77
2023-05-02T05:08:04.425Z,17.54
2023-05-02T05:13:09.294Z,17.98
2023-05-02T05:18:11.928Z,17.74
2023-05-02T05:23:13.895Z,17.19
2023-05-02T05:28:15.788Z,16.92
2023-05-02T05:33:18.081Z,16.87
2023-05-02T05:38:20.084Z,17.01
2023-05-02T05:43:23.414Z,17.32
2023-05-02T05:48:25.935Z,17.68
2023-05-02T05:53:27.934Z,17.97
2023-05-02T05:58:30.592Z,18.27
2023-05-02T06:03:33.220Z,18.81
2023-05-02T06:08:35.764Z,19.63
2023-05-02T06:13:39.685Z,20.08
2023-05-02T06:18:42.532Z,20.04
2023-05-02T06:23:44.400Z,20.01
2023-05-02T06:28:46.237Z,20.02
2023-05-02T06:33:47.951Z,19.96
2023-05-02T06:38:49.609Z,20.03
2023-05-02T06:43:51.903Z,20.32
2023-05-02T06:48:53.840Z,20.49
2023-05-02T06:53:55.556Z,20.27
2023-05-02T06:58:57.261Z,20.18
2023-05-02T07:03:59.060Z,20.39
2023-05-02T07:09:00.942Z,20.41
2023-05-02T07:14:02.692Z,20.84
2023-05-02T07:19:06.840Z,21.20
2023-05-02T07:24:08.620Z,21.21
2023-05-02T07:29:10.330Z,21.22
2023-05-02T07:34:12.091Z,21.15
2023-05-02T07:39:13.767Z,21.29
2023-05-02T07:44:15.494Z,21.76
2023-05-02T07:49:17.166Z,22.17
2023-05-02T07:54:20.439Z,22.63
2023-05-02T07:59:22.105Z,22.98
2023-05-02T08:04:24.012Z,23.03
2023-05-02T08:09:26.114Z,23.18
2023-05-02T08:14:27.838Z,23.01
2023-05-02T08:19:29.689Z,22.87
2023-05-02T08:24:31.425Z,23.14
2023-05-02T08:29:33.431Z,23.28
2023-05-02T08:34:35.478Z,23.29
2023-05-02T08:39:37.134Z,23.44
2023-05-02T08:44:38.996Z,23.73
2023-05-02T08:49:42.341Z,24.07
2023-05-02T08:54:45.033Z,24.30
2023-05-02T08:59:46.846Z,24.55
2023-05-02T09:04:54.830Z,23.92
2023-05-02T09:09:56.583Z,23.42
2023-05-02T09:15:16.980Z,22.90
2023-05-02T09:20:21.131Z,22.50
2023-05-02T09:25:22.885Z,22.55
2023-05-02T09:30:26.268Z,22.55
2023-05-02T09:35:28.103Z,22.37
2023-05-02T09:40:30.712Z,22.31
2023-05-02T09:45:32.655Z,22.37
2023-05-02T09:50:37.021Z,22.34
2023-05-02T09:55:40.124Z,22.79
2023-05-02T10:00:45.349Z,23.47
2023-05-02T10:05:47.412Z,23.72
2023-05-02T10:10:57.324Z,23.67
2023-05-02T10:16:10.188Z,23.57
2023-05-02T10:21:16.047Z,23.70
2023-05-02T10:26:17.798Z,23.66
2023-05-02T10:31:19.537Z,23.57
2023-05-02T10:36:22.900Z,23.58
2023-05-02T10:41:27.644Z,23.82
2023-05-02T10:46:30.295Z,23.93
2023-05-02T10:51:33.186Z,23.59
2023-05-02T10:56:35.074Z,23.00
2023-05-02T11:01:39.434Z,22.85
2023-05-02T11:06:59.451Z,22.88
2023-05-02T11:12:02.191Z,23.17
2023-05-02T11:17:06.795Z,23.18
2023-05-02T11:22:34.088Z,22.87
2023-05-02T11:27:38.584Z,22.75
2023-05-02T11:32:50.101Z,22.60
2023-05-02T11:37:56.278Z,22.14
2023-05-02T11:43:00.185Z,21.95
2023-05-02T11:48:04.684Z,21.67
2023-05-02T11:53:11.947Z,21.53
2023-05-02T11:58:18.627Z,21.55
2023-05-02T12:03:28.758Z,21.76
2023-05-02T12:08:31.369Z,21.74
2023-05-02T12:13:33.321Z,21.71
2023-05-02T12:18:36.203Z,21.86
2023-05-02T12:23:39.994Z,22.07
2023-05-02T12:28:49.675Z,21.82
2023-05-02T12:33:52.763Z,21.31
2023-05-02T12:38:59.261Z,20.89
2023-05-02T12:44:01.496Z,20.75
2023-05-02T12:49:11.893Z,20.59
2023-05-02T12:54:20.944Z,20.54
2023-05-02T12:59:30.600Z,20.62
2023-05-02T13:04:36.660Z,21.06
2023-05-02T13:09:38.840Z,21.24
2023-05-02T13:14:40.720Z,21.41
2023-05-02T13:20:01.011Z,21.64
2023-05-02T13:25:07.701Z,21.62
2023-05-02T13:30:10.318Z,21.40
2023-05-02T13:35:15.879Z,21.38
2023-05-02T13:40:17.713Z,21.39
2023-05-02T13:45:19.540Z,21.56
2023-05-02T13:50:21.415Z,21.36
2023-05-02T13:55:23.224Z,20.92
2023-05-02T14:00:25.310Z,20.75
2023-05-02T14:05:27.676Z,20.80
2023-05-02T14:10:29.355Z,20.78
2023-05-02T14:15:31.793Z,20.56
2023-05-02T14:20:33.516Z,20.30
2023-05-02T14:25:36.495Z,19.97
2023-05-02T14:30:38.230Z,19.63
2023-05-02T14:35:40.049Z,19.31
2023-05-02T14:40:41.792Z,18.92
2023-05-02T14:45:43.506Z,18.56
2023-05-02T14:50:45.376Z,18.27
2023-05-02T14:55:47.074Z,18.11
2023-05-02T15:00:48.856Z,17.94
2023-05-02T15:05:50.865Z,17.59
2023-05-02T15:10:52.671Z,17.26
2023-05-02T15:15:55.797Z,17.15
2023-05-02T15:20:57.650Z,16.97
2023-05-02T15:25:59.316Z,16.70
2023-05-02T15:31:01.007Z,16.34
2023-05-02T15:36:02.717Z,16.05
2023-05-02T15:41:04.790Z,15.81
2023-05-02T15:46:06.619Z,15.56
2023-05-02T15:51:10.790Z,15.36
2023-05-02T15:56:12.822Z,15.27
2023-05-02T16:01:14.753Z,15.43
2023-05-02T16:06:17.563Z,15.35
2023-05-02T16:11:19.301Z,15.30
2023-05-02T16:16:21.059Z,15.35
2023-05-02T16:21:22.746Z,15.20
2023-05-02T16:26:24.471Z,15.05
2023-05-02T16:31:26.460Z,14.89
2023-05-02T16:36:31.766Z,14.78
2023-05-02T16:41:35.158Z,14.81
2023-05-02T16:46:37.576Z,14.84
2023-05-02T16:51:39.482Z,14.85
2023-05-02T16:56:42.526Z,14.73
2023-05-02T17:01:44.752Z,14.70
2023-05-02T17:06:47.746Z,14.73
2023-05-02T17:11:50.294Z,14.66
2023-05-02T17:16:52.066Z,14.54
2023-05-02T17:21:54.645Z,14.39
2023-05-02T17:26:56.880Z,14.30
2023-05-02T17:32:00.724Z,14.28
2023-05-02T17:37:02.465Z,14.26
2023-05-02T17:42:04.352Z,14.25
2023-05-02T17:47:06.347Z,14.27
2023-05-02T17:52:08.044Z,14.24
2023-05-02T17:57:10.163Z,14.22
2023-05-02T18:02:12.089Z,14.18
2023-05-02T18:07:13.986Z,14.14
2023-05-02T18:12:15.749Z,14.10
2023-05-02T18:17:20.413Z,14.04
2023-05-02T18:22:22.270Z,13.97
2023-05-02T18:27:24.110Z,13.92
2023-05-02T18:32:26.209Z,13.87
2023-05-02T18:37:31.678Z,13.83
2023-05-02T18:42:33.600Z,13.80
2023-05-02T18:47:36.602Z,13.80
2023-05-02T18:52:38.578Z,13.76
2023-05-02T18:57:43.628Z,13.72
2023-05-02T19:02:45.522Z,13.69
2023-05-02T19:07:47.747Z,13.65
2023-05-02T19:12:49.547Z,13.60
2023-05-02T19:17:51.323Z,13.55
2023-05-02T19:23:02.956Z,13.44
2023-05-02T19:28:19.366Z,13.32
2023-05-02T19:33:21.112Z,13.33
2023-05-02T19:38:23.094Z,13.26
2023-05-02T19:43:26.077Z,13.31
2023-05-02T19:48:28.438Z,13.29
2023-05-02T19:53:35.286Z,13.28
2023-05-02T19:58:37.258Z,13.31
2023-05-02T20:03:39.176Z,13.30
2023-05-02T20:08:41.275Z,13.32
2023-05-02T20:13:43.139Z,13.23
2023-05-02T20:18:44.790Z,13.15
2023-05-02T20:23:46.585Z,12.98
2023-05-02T20:28:48.377Z,12.75
2023-05-02T20:33:50.585Z,12.59
2023-05-02T20:38:53.018Z,12.51
2023-05-02T20:43:55.489Z,12.48
2023-05-02T20:48:59.352Z,12.46
2023-05-02T20:54:01.383Z,12.45
2023-05-02T20:59:03.144Z,12.43
2023-05-02T21:04:05.495Z,12.40
2023-05-02T21:09:09.446Z,12.36
2023-05-02T21:14:13.251Z,12.38
2023-05-02T21:19:14.980Z,12.40
2023-05-02T21:24:16.710Z,12.43
2023-05-02T21:29:18.827Z,12.41
2023-05-02T21:34:20.745Z,12.35
2023-05-02T21:39:26.535Z,12.29
2023-05-02T21:44:28.938Z,12.32
2023-05-02T21:49:37.884Z,12.31
2023-05-02T21:54:39.868Z,12.37
2023-05-02T21:59:41.881Z,12.45
2023-05-02T22:04:47.282Z,12.57
2023-05-02T22:09:48.945Z,12.69
2023-05-02T22:14:51.114Z,12.76
2023-05-02T22:19:52.950Z,12.78
2023-05-02T22:24:54.813Z,12.82
2023-05-02T22:30:09.410Z,12.84
2023-05-02T22:35:11.222Z,12.86
2023-05-02T22:40:13.241Z,12.89
2023-05-02T22:45:14.939Z,12.93
2023-05-02T22:50:16.760Z,12.97
2023-05-02T22:55:18.563Z,12.99
2023-05-02T23:00:22.546Z,13.00
2023-05-02T23:05:24.479Z,13.03
2023-05-02T23:10:31.602Z,13.04
2023-05-02T23:15:54.477Z,13.03
2023-05-02T23:20:56.441Z,13.03
2023-05-02T23:25:58.466Z,13.00
2023-05-02T23:31:00.276Z,12.93
2023-05-02T23:36:02.505Z,12.82
2023-05-02T23:41:04.867Z,12.79
2023-05-02T23:46:09.526Z,12.75
2023-05-02T23:51:12.602Z,12.73
2023-05-02T23:56:14.372Z,12.70
